createdAt,value
2023-09-27T00:02:24.435Z,2.60
2023-09-27T00:04:52.461Z,2.95
2023-09-27T00:07:20.029Z,3.00
2023-09-27T00:09:47.480Z,2.88
2023-09-27T00:12:16.650Z,3.00
2023-09-27T00:14:44.108Z,3.22
2023-09-27T00:17:12.507Z,3.10
2023-09-27T00:19:40.658Z,2.90
2023-09-27T00:24:37.983Z,3.22
2023-09-27T00:27:05.280Z,2.47
2023-09-27T00:29:33.326Z,3.17
2023-09-27T00:32:00.699Z,2.92
2023-09-27T00:34:28.146Z,3.25
2023-09-27T00:36:55.778Z,3.03
2023-09-27T00:39:23.251Z,2.90
2023-09-27T00:41:50.633Z,2.95
2023-09-27T00:44:18.345Z,3.10
2023-09-27T00:46:55.319Z,2.70
2023-09-27T00:49:23.912Z,3.53
2023-09-27T00:51:53.700Z,3.10
2023-09-27T00:54:21.899Z,3.22
2023-09-27T00:56:50.354Z,3.03
2023-09-27T00:59:19.342Z,3.20
2023-09-27T01:01:47.912Z,3.22
2023-09-27T01:04:15.397Z,3.30
2023-09-27T01:06:44.965Z,3.00
2023-09-27T01:09:15.397Z,3.13
2023-09-27T01:11:43.336Z,3.28
2023-09-27T01:14:10.800Z,3.28
2023-09-27T01:16:38.232Z,2.95
2023-09-27T01:19:06.081Z,3.40
2023-09-27T01:21:33.342Z,3.47
2023-09-27T01:24:00.644Z,3.40
2023-09-27T01:26:31.870Z,3.20
2023-09-27T01:28:59.816Z,3.55
2023-09-27T01:31:27.210Z,3.25
2023-09-27T01:33:56.665Z,3.25
2023-09-27T01:36:24.074Z,3.65
2023-09-27T01:38:51.466Z,2.75
2023-09-27T01:41:18.976Z,3.30
2023-09-27T01:43:46.790Z,3.20
2023-09-27T01:46:17.079Z,3.30
2023-09-27T01:48:44.514Z,2.85
2023-09-27T01:51:14.791Z,3.13
2023-09-27T01:53:42.075Z,3.05
2023-09-27T01:56:09.401Z,3.80
2023-09-27T01:58:37.153Z,3.00
2023-09-27T02:01:05.016Z,3.33
2023-09-27T02:03:35.574Z,3.20
2023-09-27T02:06:04.236Z,3.28
2023-09-27T02:08:39.377Z,4.10
2023-09-27T02:11:11.597Z,3.30
2023-09-27T02:13:39.014Z,3.60
2023-09-27T02:16:14.523Z,3.00
2023-09-27T02:18:45.982Z,3.50
2023-09-27T02:21:14.563Z,3.10
2023-09-27T02:26:10.663Z,3.20
2023-09-27T02:28:38.210Z,3.43
2023-09-27T02:31:13.829Z,3.88
2023-09-27T02:33:41.329Z,3.80
2023-09-27T02:36:09.404Z,4.07
2023-09-27T02:38:38.100Z,3.85
2023-09-27T02:41:05.741Z,3.80
2023-09-27T02:43:33.274Z,4.75
2023-09-27T02:46:00.590Z,4.35
2023-09-27T02:48:30.088Z,4.22
2023-09-27T02:50:57.826Z,4.65
2023-09-27T02:53:27.821Z,4.53
2023-09-27T02:55:55.293Z,4.53
2023-09-27T02:58:22.897Z,4.47
2023-09-27T03:00:59.675Z,4.07
2023-09-27T03:03:28.859Z,4.50
2023-09-27T03:05:56.696Z,6.00
2023-09-27T03:08:24.406Z,4.82
2023-09-27T03:10:51.899Z,4.25
2023-09-27T03:13:22.378Z,5.40
2023-09-27T03:15:59.845Z,5.07
2023-09-27T03:18:30.304Z,4.97
2023-09-27T03:21:04.631Z,4.82
2023-09-27T03:23:32.367Z,4.60
2023-09-27T03:26:00.341Z,4.72
2023-09-27T03:28:27.868Z,5.05
2023-09-27T03:30:55.565Z,4.75
2023-09-27T03:33:23.207Z,5.18
2023-09-27T03:35:52.860Z,5.30
2023-09-27T03:38:20.647Z,5.15
2023-09-27T03:40:49.569Z,5.35
2023-09-27T03:43:22.220Z,5.43
2023-09-27T03:45:50.824Z,5.30
2023-09-27T03:48:20.967Z,5.07
2023-09-27T03:50:52.555Z,5.38
2023-09-27T03:53:23.845Z,5.13
2023-09-27T03:55:51.714Z,5.13
2023-09-27T03:58:19.810Z,5.20
2023-09-27T04:00:47.760Z,5.00
2023-09-27T04:03:19.000Z,5.20
2023-09-27T04:05:47.793Z,6.13
2023-09-27T04:08:15.762Z,5.18
2023-09-27T04:10:46.816Z,5.95
2023-09-27T04:13:20.044Z,5.85
2023-09-27T04:15:51.266Z,5.35
2023-09-27T04:18:20.408Z,5.25
2023-09-27T04:20:48.354Z,5.65
2023-09-27T04:23:16.373Z,5.93
2023-09-27T04:25:44.587Z,5.13
2023-09-27T04:28:12.284Z,5.45
2023-09-27T04:30:39.988Z,5.40
2023-09-27T04:33:08.424Z,5.68
2023-09-27T04:35:40.990Z,5.03
2023-09-27T04:38:17.540Z,5.32
2023-09-27T04:40:45.442Z,5.00
2023-09-27T04:43:15.900Z,5.32
2023-09-27T04:45:44.204Z,5.13
2023-09-27T04:48:12.105Z,4.97
2023-09-27T04:50:41.172Z,5.82
2023-09-27T04:53:09.199Z,5.22
2023-09-27T04:55:37.093Z,4.97
2023-09-27T04:58:07.273Z,4.72
2023-09-27T05:00:38.493Z,5.38
2023-09-27T05:03:08.131Z,4.95
2023-09-27T05:05:36.268Z,4.88
2023-09-27T05:08:05.284Z,5.03
2023-09-27T05:10:33.076Z,4.72
2023-09-27T05:16:50.423Z,4.68
2023-09-27T05:19:17.664Z,4.60
2023-09-27T05:21:44.918Z,5.53
2023-09-27T05:24:17.187Z,5.28
2023-09-27T05:26:44.882Z,4.70
2023-09-27T05:29:15.223Z,4.63
2023-09-27T05:31:45.726Z,4.13
2023-09-27T05:34:13.042Z,6.05
2023-09-27T05:36:45.315Z,3.92
2023-09-27T05:39:14.170Z,5.15
2023-09-27T05:41:42.051Z,4.57
2023-09-27T05:44:10.729Z,4.80
2023-09-27T05:46:43.191Z,4.78
2023-09-27T05:51:46.008Z,4.53
2023-09-27T05:54:13.821Z,4.78
2023-09-27T05:56:41.616Z,5.30
2023-09-27T05:59:13.271Z,4.03
2023-09-27T06:01:42.787Z,4.85
2023-09-27T06:04:12.033Z,4.50
2023-09-27T06:06:40.422Z,4.70
2023-09-27T06:11:48.990Z,4.28
2023-09-27T06:14:19.799Z,5.15
2023-09-27T06:16:55.797Z,4.57
2023-09-27T06:19:24.599Z,4.95
2023-09-27T06:22:09.412Z,4.68
2023-09-27T06:24:38.038Z,4.40
2023-09-27T06:27:05.680Z,6.20
2023-09-27T06:29:35.039Z,5.20
2023-09-27T06:32:07.009Z,4.22
2023-09-27T06:34:36.916Z,4.85
2023-09-27T06:37:11.057Z,4.93
2023-09-27T06:39:43.677Z,4.63
2023-09-27T06:42:15.288Z,4.05
2023-09-27T06:44:43.978Z,5.00
2023-09-27T06:47:12.112Z,4.90
2023-09-27T06:49:40.133Z,5.30
2023-09-27T06:52:09.227Z,4.63
2023-09-27T06:54:37.344Z,4.72
2023-09-27T06:59:39.117Z,4.35
2023-09-27T07:02:09.965Z,4.68
2023-09-27T07:04:37.862Z,4.93
2023-09-27T07:07:05.463Z,4.13
2023-09-27T07:09:35.005Z,4.95
2023-09-27T07:12:03.206Z,3.90
2023-09-27T07:14:31.997Z,4.35
2023-09-27T07:17:04.682Z,4.35
2023-09-27T07:19:41.021Z,16.10
2023-09-27T07:22:11.907Z,6.65
2023-09-27T07:24:40.243Z,4.10
2023-09-27T07:27:09.077Z,4.13
2023-09-27T07:29:44.310Z,4.90
2023-09-27T07:32:19.464Z,4.22
2023-09-27T07:34:47.510Z,4.07
2023-09-27T07:37:24.883Z,3.83
2023-09-27T07:40:27.374Z,5.63
2023-09-27T07:43:00.141Z,4.03
2023-09-27T07:45:29.651Z,4.10
2023-09-27T07:48:03.909Z,3.70
2023-09-27T07:50:39.619Z,4.05
2023-09-27T07:53:09.936Z,3.47
2023-09-27T07:55:48.390Z,4.05
2023-09-27T07:58:19.847Z,3.50
2023-09-27T08:00:49.408Z,3.70
2023-09-27T08:03:20.520Z,4.18
2023-09-27T08:05:55.820Z,4.57
2023-09-27T08:08:32.470Z,4.80
2023-09-27T08:11:02.092Z,4.35
2023-09-27T08:13:31.536Z,4.68
2023-09-27T08:16:06.172Z,4.35
2023-09-27T08:18:35.536Z,4.13
2023-09-27T08:21:09.747Z,4.78
2023-09-27T08:23:38.155Z,4.00
2023-09-27T08:26:15.465Z,4.05
2023-09-27T08:28:53.362Z,3.97
2023-09-27T08:31:27.121Z,3.92
2023-09-27T08:33:58.935Z,3.88
2023-09-27T08:36:53.806Z,3.50
2023-09-27T08:39:33.226Z,4.18
2023-09-27T08:42:04.792Z,4.70
2023-09-27T08:44:34.175Z,4.95
2023-09-27T08:47:08.396Z,3.97
2023-09-27T08:49:39.714Z,4.60
2023-09-27T08:52:11.372Z,4.90
2023-09-27T08:54:40.848Z,4.63
2023-09-27T08:57:14.687Z,4.13
2023-09-27T08:59:43.740Z,4.63
2023-09-27T09:02:11.933Z,4.30
2023-09-27T09:07:16.490Z,4.50
2023-09-27T09:09:44.848Z,4.53
2023-09-27T09:12:13.857Z,4.22
2023-09-27T09:14:53.627Z,5.10
2023-09-27T09:17:26.959Z,4.30
2023-09-27T09:20:19.227Z,4.78
2023-09-27T09:22:47.934Z,4.10
2023-09-27T09:25:17.677Z,4.40
2023-09-27T09:28:14.975Z,3.58
2023-09-27T09:30:47.338Z,3.95
2023-09-27T09:33:22.698Z,4.55
2023-09-27T09:35:56.629Z,5.32
2023-09-27T09:38:32.341Z,5.55
2023-09-27T09:41:03.052Z,4.80
2023-09-27T09:43:40.628Z,4.72
2023-09-27T09:46:18.804Z,4.38
2023-09-27T09:48:56.784Z,4.95
2023-09-27T09:51:29.065Z,4.60
2023-09-27T09:54:09.790Z,5.00
2023-09-27T09:56:53.331Z,4.40
2023-09-27T09:59:39.424Z,5.15
2023-09-27T10:02:29.888Z,4.35
2023-09-27T10:05:02.082Z,4.70
2023-09-27T10:07:30.877Z,4.00
2023-09-27T10:09:59.529Z,5.63
2023-09-27T10:12:46.035Z,5.18
2023-09-27T10:15:21.417Z,4.47
2023-09-27T10:17:52.229Z,4.18
2023-09-27T10:20:23.782Z,4.53
2023-09-27T10:23:15.700Z,5.32
2023-09-27T10:25:45.200Z,4.68
2023-09-27T10:28:13.715Z,4.75
2023-09-27T10:30:46.657Z,4.35
2023-09-27T10:33:17.828Z,4.68
2023-09-27T10:35:47.856Z,4.65
2023-09-27T10:38:17.069Z,4.43
2023-09-27T10:40:53.817Z,4.72
2023-09-27T10:43:39.782Z,4.60
2023-09-27T10:46:09.845Z,4.32
2023-09-27T10:48:39.058Z,5.00
2023-09-27T10:51:06.426Z,3.78
2023-09-27T10:53:39.648Z,4.32
2023-09-27T10:56:10.910Z,4.75
2023-09-27T10:58:54.217Z,4.50
2023-09-27T11:01:25.929Z,4.65
2023-09-27T11:04:24.702Z,4.25
2023-09-27T11:06:53.320Z,4.20
2023-09-27T11:09:24.969Z,4.53
2023-09-27T11:12:02.805Z,4.50
2023-09-27T11:14:35.958Z,4.15
2023-09-27T11:17:26.199Z,4.00
2023-09-27T11:20:13.585Z,5.60
2023-09-27T11:22:47.129Z,4.50
2023-09-27T11:25:34.075Z,4.32
2023-09-27T11:28:02.426Z,4.68
2023-09-27T11:30:36.776Z,4.07
2023-09-27T11:33:18.225Z,5.22
2023-09-27T11:35:52.715Z,4.40
2023-09-27T11:38:29.556Z,4.80
2023-09-27T11:41:07.495Z,4.57
2023-09-27T11:43:36.020Z,4.82
2023-09-27T11:46:04.993Z,3.90
2023-09-27T11:48:44.132Z,4.65
2023-09-27T11:51:24.910Z,4.32
2023-09-27T11:53:53.502Z,3.97
2023-09-27T11:56:21.453Z,4.00
2023-09-27T11:58:49.165Z,4.53
2023-09-27T12:01:20.932Z,4.72
2023-09-27T12:03:50.849Z,4.88
2023-09-27T12:06:20.328Z,4.18
2023-09-27T12:08:52.229Z,4.70
2023-09-27T12:11:19.778Z,4.93
2023-09-27T12:13:47.406Z,4.95
2023-09-27T12:16:21.831Z,5.03
2023-09-27T12:18:50.406Z,5.70
2023-09-27T12:21:18.727Z,4.90
2023-09-27T12:23:46.465Z,5.40
2023-09-27T12:26:16.130Z,4.82
2023-09-27T12:28:43.632Z,4.82
2023-09-27T12:31:22.993Z,5.80
2023-09-27T12:33:53.453Z,5.55
2023-09-27T12:36:22.834Z,4.88
2023-09-27T12:38:50.166Z,5.13
2023-09-27T12:41:19.030Z,5.00
2023-09-27T12:43:46.960Z,5.00
2023-09-27T12:46:15.404Z,5.05
2023-09-27T12:48:43.858Z,4.72
2023-09-27T12:53:39.675Z,4.97
2023-09-27T12:56:07.474Z,5.50
2023-09-27T12:58:36.148Z,5.35
2023-09-27T13:01:16.934Z,5.85
2023-09-27T13:03:52.543Z,5.55
2023-09-27T13:06:26.147Z,4.72
2023-09-27T13:09:21.888Z,5.72
2023-09-27T13:12:02.044Z,5.75
2023-09-27T13:14:34.025Z,5.10
2023-09-27T13:17:02.407Z,5.07
2023-09-27T13:21:57.664Z,6.03
2023-09-27T13:24:40.982Z,6.20
2023-09-27T13:27:12.284Z,5.65
2023-09-27T13:29:41.971Z,5.28
2023-09-27T13:32:10.208Z,5.68
2023-09-27T13:34:43.843Z,5.57
2023-09-27T13:37:12.008Z,5.15
2023-09-27T13:42:19.898Z,6.57
2023-09-27T13:44:49.468Z,5.50
2023-09-27T13:47:38.464Z,5.65
2023-09-27T13:50:10.838Z,5.68
2023-09-27T13:52:38.291Z,5.68
2023-09-27T13:55:13.854Z,5.75
2023-09-27T13:57:49.167Z,6.50
2023-09-27T14:00:20.369Z,5.40
2023-09-27T14:02:51.473Z,5.25
2023-09-27T14:05:48.076Z,5.90
2023-09-27T14:08:15.637Z,5.07
2023-09-27T14:10:42.933Z,5.25
2023-09-27T14:13:10.531Z,6.47
2023-09-27T14:15:40.426Z,6.32
2023-09-27T14:18:09.192Z,6.10
2023-09-27T14:20:37.406Z,6.25
2023-09-27T14:23:05.021Z,5.72
2023-09-27T14:25:38.735Z,5.40
2023-09-27T14:28:07.438Z,5.43
2023-09-27T14:30:37.675Z,5.45
2023-09-27T14:33:05.352Z,6.35
2023-09-27T14:38:04.249Z,6.30
2023-09-27T14:40:31.577Z,6.00
2023-09-27T14:43:00.303Z,6.38
2023-09-27T14:45:36.407Z,6.28
2023-09-27T14:48:07.732Z,5.90
2023-09-27T14:50:35.680Z,6.57
2023-09-27T14:53:03.272Z,5.97
2023-09-27T14:55:34.634Z,5.82
2023-09-27T14:58:12.162Z,6.63
2023-09-27T15:00:39.573Z,4.57
2023-09-27T15:03:07.307Z,5.93
2023-09-27T15:05:35.390Z,6.03
2023-09-27T15:08:02.859Z,6.57
2023-09-27T15:10:30.136Z,6.55
2023-09-27T15:13:00.924Z,5.82
2023-09-27T15:15:28.158Z,5.40
2023-09-27T15:17:55.404Z,5.68
2023-09-27T15:20:23.275Z,5.90
2023-09-27T15:23:05.486Z,5.68
2023-09-27T15:25:36.353Z,6.35
2023-09-27T15:28:04.178Z,5.70
2023-09-27T15:33:12.367Z,6.38
2023-09-27T15:35:40.049Z,5.65
2023-09-27T15:38:22.251Z,5.68
2023-09-27T15:41:11.542Z,6.07
2023-09-27T15:43:45.086Z,5.78
2023-09-27T15:46:15.056Z,6.45
2023-09-27T15:48:57.433Z,6.22
2023-09-27T15:51:25.137Z,6.03
2023-09-27T15:54:03.407Z,5.20
2023-09-27T15:56:39.048Z,5.57
2023-09-27T15:59:13.832Z,6.17
2023-09-27T16:01:43.081Z,5.40
2023-09-27T16:04:12.110Z,5.47
2023-09-27T16:06:43.038Z,5.50
2023-09-27T16:09:13.329Z,5.50
2023-09-27T16:11:43.100Z,6.20
2023-09-27T16:14:12.961Z,5.27
2023-09-27T16:16:40.608Z,5.50
2023-09-27T16:19:08.049Z,5.88
2023-09-27T16:21:35.489Z,5.18
2023-09-27T16:24:04.272Z,5.78
2023-09-27T16:26:31.783Z,6.63
2023-09-27T16:28:59.332Z,6.20
2023-09-27T16:31:33.300Z,5.68
2023-09-27T16:34:01.046Z,5.20
2023-09-27T16:36:28.523Z,5.18
2023-09-27T16:38:56.223Z,5.38
2023-09-27T16:41:24.067Z,5.90
2023-09-27T16:46:18.781Z,5.28
2023-09-27T16:48:46.392Z,5.78
2023-09-27T16:51:13.850Z,5.82
2023-09-27T16:53:41.305Z,6.43
2023-09-27T16:56:09.799Z,5.45
2023-09-27T16:58:37.317Z,5.85
2023-09-27T17:01:04.735Z,5.88
2023-09-27T17:03:33.133Z,6.25
2023-09-27T17:06:01.143Z,5.90
2023-09-27T17:08:28.521Z,6.30
2023-09-27T17:10:56.669Z,7.03
2023-09-27T17:13:24.130Z,6.10
2023-09-27T17:15:52.653Z,7.90
2023-09-27T17:18:20.057Z,6.85
2023-09-27T17:20:47.635Z,6.80
2023-09-27T17:23:15.010Z,7.43
2023-09-27T17:25:42.392Z,7.30
2023-09-27T17:28:10.075Z,7.00
2023-09-27T17:30:39.537Z,6.88
2023-09-27T17:33:07.292Z,7.82
2023-09-27T17:35:34.798Z,6.20
2023-09-27T17:38:02.292Z,6.78
2023-09-27T17:40:29.753Z,12.93
2023-09-27T17:42:56.955Z,6.97
2023-09-27T17:45:24.237Z,7.15
2023-09-27T17:47:53.286Z,7.00
2023-09-27T17:50:20.538Z,6.68
2023-09-27T17:52:47.812Z,6.05
2023-09-27T17:55:15.124Z,7.13
2023-09-27T17:57:43.168Z,6.10
2023-09-27T18:00:11.569Z,6.80
2023-09-27T18:02:38.978Z,6.22
2023-09-27T18:05:07.151Z,8.20
2023-09-27T18:10:02.004Z,7.30
2023-09-27T18:12:30.575Z,6.90
2023-09-27T18:14:58.105Z,7.53
2023-09-27T18:17:25.980Z,8.43
2023-09-27T18:19:55.457Z,8.20
2023-09-27T18:22:22.818Z,9.15
2023-09-27T18:24:50.167Z,8.93
2023-09-27T18:27:17.737Z,8.63
2023-09-27T18:29:46.233Z,8.35
2023-09-27T18:32:13.454Z,10.43
2023-09-27T18:34:40.915Z,10.25
2023-09-27T18:37:10.857Z,11.20
2023-09-27T18:39:38.078Z,10.20
2023-09-27T18:42:05.430Z,9.70
2023-09-27T18:44:32.715Z,9.38
2023-09-27T18:47:00.254Z,8.93
2023-09-27T18:49:30.587Z,9.70
2023-09-27T18:51:58.102Z,9.50
2023-09-27T18:54:25.379Z,9.48
2023-09-27T18:56:53.046Z,9.43
2023-09-27T18:59:20.789Z,9.20
2023-09-27T19:01:48.130Z,9.18
2023-09-27T19:04:15.657Z,10.27
2023-09-27T19:06:43.094Z,11.45
2023-09-27T19:09:12.244Z,9.75
2023-09-27T19:11:39.743Z,8.75
2023-09-27T19:14:07.221Z,8.32
2023-09-27T19:16:34.803Z,8.98
2023-09-27T19:19:02.110Z,8.23
2023-09-27T19:21:30.546Z,8.65
2023-09-27T19:23:57.856Z,8.40
2023-09-27T19:26:25.383Z,9.60
2023-09-27T19:28:54.530Z,9.13
2023-09-27T19:31:21.885Z,8.75
2023-09-27T19:33:51.192Z,9.13
2023-09-27T19:36:21.107Z,8.65
2023-09-27T19:38:49.827Z,9.52
2023-09-27T19:41:17.249Z,9.30
2023-09-27T19:43:45.280Z,9.57
2023-09-27T19:46:13.211Z,8.77
2023-09-27T19:48:45.017Z,8.82
2023-09-27T19:51:28.062Z,8.10
2023-09-27T19:54:01.741Z,9.13
2023-09-27T19:56:29.423Z,7.85
2023-09-27T19:58:58.934Z,7.97
2023-09-27T20:01:32.483Z,8.63
2023-09-27T20:04:01.473Z,8.85
2023-09-27T20:06:31.076Z,8.93
2023-09-27T20:08:58.564Z,8.93
2023-09-27T20:11:25.848Z,8.88
2023-09-27T20:13:53.339Z,8.98
2023-09-27T20:16:20.859Z,9.90
2023-09-27T20:18:48.320Z,9.43
2023-09-27T20:21:15.849Z,9.88
2023-09-27T20:23:43.267Z,9.30
2023-09-27T20:26:11.601Z,8.98
2023-09-27T20:28:41.245Z,8.07
2023-09-27T20:31:08.704Z,10.18
2023-09-27T20:33:37.618Z,9.45
2023-09-27T20:36:06.191Z,9.43
2023-09-27T20:38:33.750Z,9.63
2023-09-27T20:41:01.164Z,9.07
2023-09-27T20:43:28.529Z,9.02
2023-09-27T20:45:55.913Z,9.70
2023-09-27T20:48:23.199Z,9.30
2023-09-27T20:50:50.663Z,9.73
2023-09-27T20:53:17.935Z,9.13
2023-09-27T20:55:45.240Z,9.40
2023-09-27T20:58:12.475Z,9.32
2023-09-27T21:00:39.726Z,8.68
2023-09-27T21:03:07.182Z,8.98
2023-09-27T21:05:34.534Z,9.20
2023-09-27T21:08:01.877Z,9.68
2023-09-27T21:10:29.141Z,9.43
2023-09-27T21:12:56.534Z,9.45
2023-09-27T21:15:23.769Z,9.35
2023-09-27T21:17:50.932Z,9.65
2023-09-27T21:20:18.167Z,11.30
2023-09-27T21:22:45.396Z,10.25
2023-09-27T21:25:12.597Z,11.15
2023-09-27T21:27:39.987Z,10.68
2023-09-27T21:30:08.641Z,10.10
2023-09-27T21:32:36.352Z,10.30
2023-09-27T21:35:04.430Z,9.25
2023-09-27T21:37:31.712Z,10.95
2023-09-27T21:39:58.961Z,10.88
2023-09-27T21:42:26.352Z,10.77
2023-09-27T21:44:53.687Z,10.85
2023-09-27T21:47:20.882Z,10.25
2023-09-27T21:49:48.183Z,10.05
2023-09-27T21:52:15.356Z,10.00
2023-09-27T21:54:42.784Z,9.82
2023-09-27T21:57:10.365Z,9.85
2023-09-27T21:59:37.551Z,9.75
2023-09-27T22:02:06.048Z,9.68
2023-09-27T22:04:33.821Z,10.10
2023-09-27T22:07:01.101Z,9.90
2023-09-27T22:09:28.356Z,9.77
2023-09-27T22:11:57.131Z,9.82
2023-09-27T22:14:26.449Z,10.20
2023-09-27T22:16:57.958Z,8.45
2023-09-27T22:19:28.914Z,9.23
2023-09-27T22:21:59.463Z,9.73
2023-09-27T22:24:31.483Z,8.77
2023-09-27T22:26:58.920Z,9.02
2023-09-27T22:29:26.109Z,9.05
2023-09-27T22:31:58.651Z,9.52
2023-09-27T22:34:26.026Z,8.95
2023-09-27T22:36:54.291Z,9.02
2023-09-27T22:39:22.854Z,8.57
2023-09-27T22:41:53.119Z,9.52
2023-09-27T22:44:21.614Z,8.85
2023-09-27T22:46:54.954Z,9.20
2023-09-27T22:49:24.664Z,9.32
2023-09-27T22:51:52.943Z,8.63
2023-09-27T22:56:52.265Z,9.35
2023-09-27T22:59:19.737Z,9.02
2023-09-27T23:01:50.413Z,9.25
2023-09-27T23:04:18.094Z,7.88
2023-09-27T23:06:46.500Z,8.43
2023-09-27T23:09:25.277Z,9.07
2023-09-27T23:12:12.655Z,8.20
2023-09-27T23:14:58.900Z,8.65
2023-09-27T23:17:30.647Z,9.40
2023-09-27T23:19:57.957Z,8.63
2023-09-27T23:22:27.695Z,9.82
2023-09-27T23:25:13.938Z,8.93
2023-09-27T23:27:41.229Z,10.35
2023-09-27T23:30:14.050Z,8.05
2023-09-27T23:32:41.452Z,8.63
2023-09-27T23:35:11.033Z,9.23
2023-09-27T23:37:38.513Z,8.55
2023-09-27T23:40:15.308Z,8.27
2023-09-27T23:42:48.132Z,8.18
2023-09-27T23:45:15.621Z,7.97
2023-09-27T23:47:45.201Z,8.50
2023-09-27T23:50:18.288Z,8.45
2023-09-27T23:52:48.477Z,8.95
2023-09-27T23:55:21.611Z,8.02
2023-09-27T23:57:49.279Z,8.35
